sensor_id;sensor_type;location;lat;lon;timestamp;P1;durP1;ratioP1;P2;durP2;ratioP2
11797;SDS011;5956;51.428;6.682;2023-09-30T00:00:23;8.77;;;4.90;;
11797;SDS011;5956;51.428;6.682;2023-09-30T00:02:50;9.97;;;6.03;;
11797;SDS011;5956;51.428;6.682;2023-09-30T00:05:16;8.77;;;5.87;;
11797;SDS011;5956;51.428;6.682;2023-09-30T00:07:46;9.37;;;4.90;;
11797;SDS011;5956;51.428;6.682;2023-09-30T00:10:12;6.53;;;5.03;;
11797;SDS011;5956;51.428;6.682;2023-09-30T00:12:39;10.10;;;5.40;;
11797;SDS011;5956;51.428;6.682;2023-09-30T00:15:06;10.33;;;5.57;;
11797;SDS011;5956;51.428;6.682;2023-09-30T00:17:33;6.80;;;4.77;;
11797;SDS011;5956;51.428;6.682;2023-09-30T00:19:59;7.00;;;5.47;;
11797;SDS011;5956;51.428;6.682;2023-09-30T00:22:26;7.90;;;4.47;;
11797;SDS011;5956;51.428;6.682;2023-09-30T00:24:55;6.23;;;4.23;;
11797;SDS011;5956;51.428;6.682;2023-09-30T00:27:21;8.17;;;4.97;;
11797;SDS011;5956;51.428;6.682;2023-09-30T00:29:48;8.70;;;5.27;;
11797;SDS011;5956;51.428;6.682;2023-09-30T00:32:15;5.57;;;4.40;;
11797;SDS011;5956;51.428;6.682;2023-09-30T00:34:41;8.03;;;4.90;;
11797;SDS011;5956;51.428;6.682;2023-09-30T00:37:08;9.57;;;5.63;;
11797;SDS011;5956;51.428;6.682;2023-09-30T00:39:34;8.27;;;4.63;;
11797;SDS011;5956;51.428;6.682;2023-09-30T00:42:03;9.40;;;4.77;;
11797;SDS011;5956;51.428;6.682;2023-09-30T00:44:30;10.07;;;5.17;;
11797;SDS011;5956;51.428;6.682;2023-09-30T00:46:56;5.13;;;4.63;;
11797;SDS011;5956;51.428;6.682;2023-09-30T00:49:23;7.80;;;5.13;;
11797;SDS011;5956;51.428;6.682;2023-09-30T00:51:50;7.70;;;5.63;;
11797;SDS011;5956;51.428;6.682;2023-09-30T00:54:18;7.63;;;5.77;;
11797;SDS011;5956;51.428;6.682;2023-09-30T00:56:45;10.80;;;6.20;;
11797;SDS011;5956;51.428;6.682;2023-09-30T00:59:13;12.20;;;6.07;;
11797;SDS011;5956;51.428;6.682;2023-09-30T01:01:40;7.70;;;5.93;;
11797;SDS011;5956;51.428;6.682;2023-09-30T01:04:07;8.47;;;6.23;;
11797;SDS011;5956;51.428;6.682;2023-09-30T01:06:33;10.00;;;6.20;;
11797;SDS011;5956;51.428;6.682;2023-09-30T01:08:59;10.43;;;6.47;;
11797;SDS011;5956;51.428;6.682;2023-09-30T01:11:26;7.43;;;5.50;;
11797;SDS011;5956;51.428;6.682;2023-09-30T01:13:52;9.73;;;6.77;;
11797;SDS011;5956;51.428;6.682;2023-09-30T01:16:22;10.33;;;6.50;;
11797;SDS011;5956;51.428;6.682;2023-09-30T01:18:48;9.67;;;6.37;;
11797;SDS011;5956;51.428;6.682;2023-09-30T01:21:15;10.40;;;6.23;;
11797;SDS011;5956;51.428;6.682;2023-09-30T01:23:44;9.60;;;5.97;;
11797;SDS011;5956;51.428;6.682;2023-09-30T01:26:12;7.83;;;5.67;;
11797;SDS011;5956;51.428;6.682;2023-09-30T01:28:40;8.23;;;5.63;;
11797;SDS011;5956;51.428;6.682;2023-09-30T01:31:06;7.47;;;5.70;;
11797;SDS011;5956;51.428;6.682;2023-09-30T01:33:33;10.37;;;5.93;;
11797;SDS011;5956;51.428;6.682;2023-09-30T01:36:00;8.40;;;5.37;;
11797;SDS011;5956;51.428;6.682;2023-09-30T01:38:26;7.73;;;5.70;;
11797;SDS011;5956;51.428;6.682;2023-09-30T01:40:54;9.77;;;6.00;;
11797;SDS011;5956;51.428;6.682;2023-09-30T01:43:21;8.83;;;6.00;;
11797;SDS011;5956;51.428;6.682;2023-09-30T01:45:47;11.77;;;5.53;;
11797;SDS011;5956;51.428;6.682;2023-09-30T01:48:14;9.47;;;5.63;;
11797;SDS011;5956;51.428;6.682;2023-09-30T01:50:40;9.63;;;5.67;;
11797;SDS011;5956;51.428;6.682;2023-09-30T01:53:07;10.67;;;6.53;;
11797;SDS011;5956;51.428;6.682;2023-09-30T01:55:34;9.57;;;5.63;;
11797;SDS011;5956;51.428;6.682;2023-09-30T01:58:02;10.13;;;5.97;;
11797;SDS011;5956;51.428;6.682;2023-09-30T02:00:29;6.70;;;5.13;;
11797;SDS011;5956;51.428;6.682;2023-09-30T02:02:55;11.17;;;5.73;;
11797;SDS011;5956;51.428;6.682;2023-09-30T02:05:21;6.63;;;5.23;;
11797;SDS011;5956;51.428;6.682;2023-09-30T02:07:47;9.33;;;5.43;;
11797;SDS011;5956;51.428;6.682;2023-09-30T02:10:14;6.93;;;5.00;;
11797;SDS011;5956;51.428;6.682;2023-09-30T02:12:40;7.67;;;4.83;;
11797;SDS011;5956;51.428;6.682;2023-09-30T02:15:09;8.30;;;5.17;;
11797;SDS011;5956;51.428;6.682;2023-09-30T02:17:36;9.73;;;5.27;;
11797;SDS011;5956;51.428;6.682;2023-09-30T02:20:03;8.43;;;5.17;;
11797;SDS011;5956;51.428;6.682;2023-09-30T02:22:32;6.50;;;4.50;;
11797;SDS011;5956;51.428;6.682;2023-09-30T02:24:59;7.90;;;4.80;;
11797;SDS011;5956;51.428;6.682;2023-09-30T02:27:25;7.80;;;5.03;;
11797;SDS011;5956;51.428;6.682;2023-09-30T02:29:53;6.10;;;4.70;;
11797;SDS011;5956;51.428;6.682;2023-09-30T02:32:20;6.87;;;4.60;;
11797;SDS011;5956;51.428;6.682;2023-09-30T02:34:49;5.67;;;4.40;;
11797;SDS011;5956;51.428;6.682;2023-09-30T02:37:15;6.87;;;4.13;;
11797;SDS011;5956;51.428;6.682;2023-09-30T02:39:43;5.60;;;4.23;;
11797;SDS011;5956;51.428;6.682;2023-09-30T02:42:10;6.77;;;4.30;;
11797;SDS011;5956;51.428;6.682;2023-09-30T02:44:36;7.30;;;4.53;;
11797;SDS011;5956;51.428;6.682;2023-09-30T02:47:03;5.93;;;4.47;;
11797;SDS011;5956;51.428;6.682;2023-09-30T02:49:33;9.03;;;4.73;;
11797;SDS011;5956;51.428;6.682;2023-09-30T02:51:59;5.33;;;4.33;;
11797;SDS011;5956;51.428;6.682;2023-09-30T02:54:26;8.40;;;4.60;;
11797;SDS011;5956;51.428;6.682;2023-09-30T02:56:53;10.13;;;4.73;;
11797;SDS011;5956;51.428;6.682;2023-09-30T02:59:20;4.87;;;3.63;;
11797;SDS011;5956;51.428;6.682;2023-09-30T03:01:47;5.97;;;3.40;;
11797;SDS011;5956;51.428;6.682;2023-09-30T03:04:13;7.07;;;4.30;;
11797;SDS011;5956;51.428;6.682;2023-09-30T03:06:45;4.57;;;4.17;;
11797;SDS011;5956;51.428;6.682;2023-09-30T03:09:13;6.20;;;4.03;;
11797;SDS011;5956;51.428;6.682;2023-09-30T03:11:40;6.50;;;4.20;;
11797;SDS011;5956;51.428;6.682;2023-09-30T03:14:08;6.63;;;4.57;;
11797;SDS011;5956;51.428;6.682;2023-09-30T03:16:35;6.73;;;3.93;;
11797;SDS011;5956;51.428;6.682;2023-09-30T03:19:03;6.63;;;4.43;;
11797;SDS011;5956;51.428;6.682;2023-09-30T03:21:33;6.57;;;4.40;;
11797;SDS011;5956;51.428;6.682;2023-09-30T03:24:01;8.33;;;4.70;;
11797;SDS011;5956;51.428;6.682;2023-09-30T03:26:28;10.40;;;4.67;;
11797;SDS011;5956;51.428;6.682;2023-09-30T03:28:54;7.07;;;4.27;;
11797;SDS011;5956;51.428;6.682;2023-09-30T03:31:21;8.60;;;4.70;;
11797;SDS011;5956;51.428;6.682;2023-09-30T03:33:47;10.83;;;5.50;;
11797;SDS011;5956;51.428;6.682;2023-09-30T03:36:14;9.93;;;5.17;;
11797;SDS011;5956;51.428;6.682;2023-09-30T03:38:42;8.57;;;5.00;;
11797;SDS011;5956;51.428;6.682;2023-09-30T03:41:10;7.67;;;4.90;;
11797;SDS011;5956;51.428;6.682;2023-09-30T03:43:38;8.13;;;4.57;;
11797;SDS011;5956;51.428;6.682;2023-09-30T03:46:06;10.07;;;4.67;;
11797;SDS011;5956;51.428;6.682;2023-09-30T03:48:32;7.47;;;4.50;;
11797;SDS011;5956;51.428;6.682;2023-09-30T03:51:07;6.17;;;4.17;;
11797;SDS011;5956;51.428;6.682;2023-09-30T03:53:34;7.40;;;4.47;;
11797;SDS011;5956;51.428;6.682;2023-09-30T03:56:01;8.40;;;4.80;;
11797;SDS011;5956;51.428;6.682;2023-09-30T03:58:29;5.17;;;3.87;;
11797;SDS011;5956;51.428;6.682;2023-09-30T04:00:55;6.27;;;4.50;;
11797;SDS011;5956;51.428;6.682;2023-09-30T04:03:22;7.13;;;5.13;;
11797;SDS011;5956;51.428;6.682;2023-09-30T04:05:48;9.43;;;4.60;;
11797;SDS011;5956;51.428;6.682;2023-09-30T04:08:15;7.80;;;4.63;;
11797;SDS011;5956;51.428;6.682;2023-09-30T04:10:42;6.93;;;4.73;;
11797;SDS011;5956;51.428;6.682;2023-09-30T04:13:09;9.33;;;3.90;;
11797;SDS011;5956;51.428;6.682;2023-09-30T04:15:38;4.43;;;3.70;;
11797;SDS011;5956;51.428;6.682;2023-09-30T04:18:04;4.97;;;4.10;;
11797;SDS011;5956;51.428;6.682;2023-09-30T04:20:31;7.77;;;4.40;;
11797;SDS011;5956;51.428;6.682;2023-09-30T04:22:58;7.20;;;4.50;;
11797;SDS011;5956;51.428;6.682;2023-09-30T04:25:24;7.23;;;4.60;;
11797;SDS011;5956;51.428;6.682;2023-09-30T04:27:51;6.40;;;4.63;;
11797;SDS011;5956;51.428;6.682;2023-09-30T04:30:18;6.97;;;4.20;;
11797;SDS011;5956;51.428;6.682;2023-09-30T04:32:46;7.40;;;4.50;;
11797;SDS011;5956;51.428;6.682;2023-09-30T04:35:12;9.27;;;5.13;;
11797;SDS011;5956;51.428;6.682;2023-09-30T04:37:40;8.17;;;5.63;;
11797;SDS011;5956;51.428;6.682;2023-09-30T04:40:07;7.57;;;4.93;;
11797;SDS011;5956;51.428;6.682;2023-09-30T04:42:40;6.47;;;4.03;;
11797;SDS011;5956;51.428;6.682;2023-09-30T04:45:07;6.57;;;3.40;;
11797;SDS011;5956;51.428;6.682;2023-09-30T04:47:35;6.97;;;4.40;;
11797;SDS011;5956;51.428;6.682;2023-09-30T04:50:04;4.83;;;4.30;;
11797;SDS011;5956;51.428;6.682;2023-09-30T04:52:32;5.33;;;4.77;;
11797;SDS011;5956;51.428;6.682;2023-09-30T04:54:59;6.33;;;4.17;;
11797;SDS011;5956;51.428;6.682;2023-09-30T04:57:25;7.77;;;5.23;;
11797;SDS011;5956;51.428;6.682;2023-09-30T04:59:52;7.23;;;4.57;;
11797;SDS011;5956;51.428;6.682;2023-09-30T05:02:18;8.20;;;4.47;;
11797;SDS011;5956;51.428;6.682;2023-09-30T05:04:45;5.97;;;4.97;;
11797;SDS011;5956;51.428;6.682;2023-09-30T05:07:13;6.10;;;5.27;;
11797;SDS011;5956;51.428;6.682;2023-09-30T05:09:39;7.47;;;5.90;;
11797;SDS011;5956;51.428;6.682;2023-09-30T05:12:06;8.33;;;6.50;;
11797;SDS011;5956;51.428;6.682;2023-09-30T05:14:33;9.93;;;7.40;;
11797;SDS011;5956;51.428;6.682;2023-09-30T05:16:59;7.23;;;5.87;;
11797;SDS011;5956;51.428;6.682;2023-09-30T05:19:26;11.37;;;6.60;;
11797;SDS011;5956;51.428;6.682;2023-09-30T05:21:52;7.23;;;6.50;;
11797;SDS011;5956;51.428;6.682;2023-09-30T05:24:20;9.87;;;6.63;;
11797;SDS011;5956;51.428;6.682;2023-09-30T05:26:47;10.70;;;5.90;;
11797;SDS011;5956;51.428;6.682;2023-09-30T05:29:14;12.10;;;5.93;;
11797;SDS011;5956;51.428;6.682;2023-09-30T05:31:42;8.47;;;6.70;;
11797;SDS011;5956;51.428;6.682;2023-09-30T05:34:08;10.00;;;5.67;;
11797;SDS011;5956;51.428;6.682;2023-09-30T05:36:34;9.73;;;5.87;;
11797;SDS011;5956;51.428;6.682;2023-09-30T05:39:01;7.13;;;5.30;;
11797;SDS011;5956;51.428;6.682;2023-09-30T05:41:29;6.93;;;5.30;;
11797;SDS011;5956;51.428;6.682;2023-09-30T05:43:56;7.40;;;5.10;;
11797;SDS011;5956;51.428;6.682;2023-09-30T05:46:24;7.33;;;5.00;;
11797;SDS011;5956;51.428;6.682;2023-09-30T05:48:50;5.30;;;4.80;;
11797;SDS011;5956;51.428;6.682;2023-09-30T05:51:17;7.50;;;5.30;;
11797;SDS011;5956;51.428;6.682;2023-09-30T05:53:43;6.73;;;4.63;;
11797;SDS011;5956;51.428;6.682;2023-09-30T05:56:11;9.47;;;5.23;;
11797;SDS011;5956;51.428;6.682;2023-09-30T05:58:41;6.93;;;5.57;;
11797;SDS011;5956;51.428;6.682;2023-09-30T06:01:08;6.60;;;5.80;;
11797;SDS011;5956;51.428;6.682;2023-09-30T06:03:37;7.23;;;5.93;;
11797;SDS011;5956;51.428;6.682;2023-09-30T06:06:10;10.03;;;5.50;;
11797;SDS011;5956;51.428;6.682;2023-09-30T06:08:37;7.17;;;6.00;;
11797;SDS011;5956;51.428;6.682;2023-09-30T06:11:03;8.13;;;5.63;;
11797;SDS011;5956;51.428;6.682;2023-09-30T06:13:31;8.23;;;6.87;;
11797;SDS011;5956;51.428;6.682;2023-09-30T06:15:59;7.57;;;5.90;;
11797;SDS011;5956;51.428;6.682;2023-09-30T06:18:27;9.83;;;7.10;;
11797;SDS011;5956;51.428;6.682;2023-09-30T06:20:53;9.87;;;8.03;;
11797;SDS011;5956;51.428;6.682;2023-09-30T06:23:20;16.27;;;11.73;;
11797;SDS011;5956;51.428;6.682;2023-09-30T06:25:46;19.90;;;14.57;;
11797;SDS011;5956;51.428;6.682;2023-09-30T06:28:13;16.17;;;12.03;;
11797;SDS011;5956;51.428;6.682;2023-09-30T06:30:40;17.63;;;11.27;;
11797;SDS011;5956;51.428;6.682;2023-09-30T06:33:09;16.60;;;11.00;;
11797;SDS011;5956;51.428;6.682;2023-09-30T06:35:38;15.73;;;10.90;;
11797;SDS011;5956;51.428;6.682;2023-09-30T06:38:05;15.20;;;11.23;;
11797;SDS011;5956;51.428;6.682;2023-09-30T06:40:33;16.63;;;11.17;;
11797;SDS011;5956;51.428;6.682;2023-09-30T06:42:59;14.97;;;11.63;;
11797;SDS011;5956;51.428;6.682;2023-09-30T06:45:26;15.60;;;11.67;;
11797;SDS011;5956;51.428;6.682;2023-09-30T06:47:52;15.13;;;10.87;;
11797;SDS011;5956;51.428;6.682;2023-09-30T06:50:21;18.27;;;12.70;;
11797;SDS011;5956;51.428;6.682;2023-09-30T06:52:49;20.47;;;13.27;;
11797;SDS011;5956;51.428;6.682;2023-09-30T06:55:15;15.30;;;11.90;;
11797;SDS011;5956;51.428;6.682;2023-09-30T06:57:42;15.23;;;12.57;;
11797;SDS011;5956;51.428;6.682;2023-09-30T07:00:09;17.00;;;12.60;;
11797;SDS011;5956;51.428;6.682;2023-09-30T07:02:37;18.03;;;13.40;;
11797;SDS011;5956;51.428;6.682;2023-09-30T07:05:05;19.33;;;13.83;;
11797;SDS011;5956;51.428;6.682;2023-09-30T07:07:33;17.97;;;13.43;;
11797;SDS011;5956;51.428;6.682;2023-09-30T07:10:00;22.33;;;15.23;;
11797;SDS011;5956;51.428;6.682;2023-09-30T07:12:26;21.37;;;14.77;;
11797;SDS011;5956;51.428;6.682;2023-09-30T07:14:52;16.87;;;14.10;;
11797;SDS011;5956;51.428;6.682;2023-09-30T07:17:19;19.67;;;14.53;;
11797;SDS011;5956;51.428;6.682;2023-09-30T07:19:46;18.13;;;13.67;;
11797;SDS011;5956;51.428;6.682;2023-09-30T07:22:13;20.73;;;15.50;;
11797;SDS011;5956;51.428;6.682;2023-09-30T07:24:41;21.90;;;16.13;;
11797;SDS011;5956;51.428;6.682;2023-09-30T07:27:08;21.33;;;15.47;;
11797;SDS011;5956;51.428;6.682;2023-09-30T07:29:35;21.37;;;15.73;;
11797;SDS011;5956;51.428;6.682;2023-09-30T07:32:02;19.80;;;15.60;;
11797;SDS011;5956;51.428;6.682;2023-09-30T07:34:29;20.70;;;16.07;;
11797;SDS011;5956;51.428;6.682;2023-09-30T07:36:55;21.87;;;15.57;;
11797;SDS011;5956;51.428;6.682;2023-09-30T07:39:22;19.17;;;15.53;;
11797;SDS011;5956;51.428;6.682;2023-09-30T07:41:50;22.17;;;15.60;;
11797;SDS011;5956;51.428;6.682;2023-09-30T07:44:16;21.53;;;15.50;;
11797;SDS011;5956;51.428;6.682;2023-09-30T07:46:43;19.93;;;16.00;;
11797;SDS011;5956;51.428;6.682;2023-09-30T07:49:10;21.97;;;16.73;;
11797;SDS011;5956;51.428;6.682;2023-09-30T07:51:37;17.83;;;16.03;;
11797;SDS011;5956;51.428;6.682;2023-09-30T07:54:05;22.63;;;17.97;;
11797;SDS011;5956;51.428;6.682;2023-09-30T07:56:31;19.40;;;14.87;;
11797;SDS011;5956;51.428;6.682;2023-09-30T07:58:59;21.27;;;17.93;;
11797;SDS011;5956;51.428;6.682;2023-09-30T08:01:27;22.83;;;19.47;;
11797;SDS011;5956;51.428;6.682;2023-09-30T08:04:02;21.23;;;18.95;;
11797;SDS011;5956;51.428;6.682;2023-09-30T08:06:29;20.67;;;18.23;;
11797;SDS011;5956;51.428;6.682;2023-09-30T08:08:55;19.92;;;17.13;;
11797;SDS011;5956;51.428;6.682;2023-09-30T08:11:22;25.15;;;17.67;;
11797;SDS011;5956;51.428;6.682;2023-09-30T08:13:52;20.08;;;17.60;;
11797;SDS011;5956;51.428;6.682;2023-09-30T08:16:20;21.42;;;17.00;;
11797;SDS011;5956;51.428;6.682;2023-09-30T08:18:46;19.17;;;16.52;;
11797;SDS011;5956;51.428;6.682;2023-09-30T08:21:14;17.70;;;15.05;;
11797;SDS011;5956;51.428;6.682;2023-09-30T08:23:41;17.50;;;14.95;;
11797;SDS011;5956;51.428;6.682;2023-09-30T08:26:09;18.25;;;15.55;;
11797;SDS011;5956;51.428;6.682;2023-09-30T08:28:36;16.58;;;13.13;;
11797;SDS011;5956;51.428;6.682;2023-09-30T08:31:03;16.08;;;14.25;;
11797;SDS011;5956;51.428;6.682;2023-09-30T08:33:32;17.27;;;15.05;;
11797;SDS011;5956;51.428;6.682;2023-09-30T08:36:02;14.32;;;12.85;;
11797;SDS011;5956;51.428;6.682;2023-09-30T08:38:32;17.48;;;12.52;;
11797;SDS011;5956;51.428;6.682;2023-09-30T08:41:02;14.90;;;12.43;;
11797;SDS011;5956;51.428;6.682;2023-09-30T08:43:29;17.05;;;11.32;;
11797;SDS011;5956;51.428;6.682;2023-09-30T08:45:57;15.57;;;12.43;;
11797;SDS011;5956;51.428;6.682;2023-09-30T08:48:25;13.63;;;11.77;;
11797;SDS011;5956;51.428;6.682;2023-09-30T08:50:54;16.40;;;12.55;;
11797;SDS011;5956;51.428;6.682;2023-09-30T08:53:21;17.13;;;12.65;;
11797;SDS011;5956;51.428;6.682;2023-09-30T08:55:49;18.25;;;12.73;;
11797;SDS011;5956;51.428;6.682;2023-09-30T08:58:17;16.85;;;12.18;;
11797;SDS011;5956;51.428;6.682;2023-09-30T09:00:46;13.93;;;11.48;;
11797;SDS011;5956;51.428;6.682;2023-09-30T09:03:12;16.33;;;11.15;;
11797;SDS011;5956;51.428;6.682;2023-09-30T09:05:39;14.25;;;11.18;;
11797;SDS011;5956;51.428;6.682;2023-09-30T09:08:07;14.40;;;10.85;;
11797;SDS011;5956;51.428;6.682;2023-09-30T09:10:35;17.95;;;11.52;;
11797;SDS011;5956;51.428;6.682;2023-09-30T09:13:01;11.65;;;10.15;;
11797;SDS011;5956;51.428;6.682;2023-09-30T09:15:30;14.65;;;10.20;;
11797;SDS011;5956;51.428;6.682;2023-09-30T09:18:01;12.82;;;9.05;;
11797;SDS011;5956;51.428;6.682;2023-09-30T09:20:30;11.65;;;9.55;;
11797;SDS011;5956;51.428;6.682;2023-09-30T09:22:59;11.48;;;9.30;;
11797;SDS011;5956;51.428;6.682;2023-09-30T09:25:29;10.55;;;8.35;;
11797;SDS011;5956;51.428;6.682;2023-09-30T09:28:08;10.55;;;7.85;;
11797;SDS011;5956;51.428;6.682;2023-09-30T09:30:37;9.70;;;7.43;;
11797;SDS011;5956;51.428;6.682;2023-09-30T09:33:06;8.82;;;7.75;;
11797;SDS011;5956;51.428;6.682;2023-09-30T09:35:33;8.25;;;6.78;;
11797;SDS011;5956;51.428;6.682;2023-09-30T09:38:00;8.88;;;7.72;;
11797;SDS011;5956;51.428;6.682;2023-09-30T09:40:29;10.63;;;7.13;;
11797;SDS011;5956;51.428;6.682;2023-09-30T09:42:56;8.20;;;7.20;;
11797;SDS011;5956;51.428;6.682;2023-09-30T09:45:24;12.27;;;7.00;;
11797;SDS011;5956;51.428;6.682;2023-09-30T09:47:52;8.77;;;6.80;;
11797;SDS011;5956;51.428;6.682;2023-09-30T09:50:19;7.35;;;6.68;;
11797;SDS011;5956;51.428;6.682;2023-09-30T09:52:47;10.35;;;6.25;;
11797;SDS011;5956;51.428;6.682;2023-09-30T09:55:15;12.50;;;7.15;;
11797;SDS011;5956;51.428;6.682;2023-09-30T09:57:44;7.10;;;6.40;;
11797;SDS011;5956;51.428;6.682;2023-09-30T10:00:11;9.32;;;5.82;;
11797;SDS011;5956;51.428;6.682;2023-09-30T10:02:39;9.35;;;6.15;;
11797;SDS011;5956;51.428;6.682;2023-09-30T10:05:07;9.07;;;5.90;;
11797;SDS011;5956;51.428;6.682;2023-09-30T10:07:35;9.82;;;6.25;;
11797;SDS011;5956;51.428;6.682;2023-09-30T10:10:05;8.30;;;5.55;;
11797;SDS011;5956;51.428;6.682;2023-09-30T10:12:35;7.43;;;5.78;;
11797;SDS011;5956;51.428;6.682;2023-09-30T10:17:59;8.02;;;5.38;;
11797;SDS011;5956;51.428;6.682;2023-09-30T10:20:30;7.72;;;5.30;;
11797;SDS011;5956;51.428;6.682;2023-09-30T10:25:45;7.53;;;4.90;;
11797;SDS011;5956;51.428;6.682;2023-09-30T10:31:10;7.38;;;4.50;;
11797;SDS011;5956;51.428;6.682;2023-09-30T10:36:27;8.63;;;5.30;;
11797;SDS011;5956;51.428;6.682;2023-09-30T10:38:54;5.47;;;4.57;;
11797;SDS011;5956;51.428;6.682;2023-09-30T10:46:45;5.03;;;4.53;;
11797;SDS011;5956;51.428;6.682;2023-09-30T10:49:16;5.90;;;4.35;;
11797;SDS011;5956;51.428;6.682;2023-09-30T10:51:45;6.35;;;4.45;;
11797;SDS011;5956;51.428;6.682;2023-09-30T10:54:13;6.85;;;4.38;;
11797;SDS011;5956;51.428;6.682;2023-09-30T10:56:40;31.20;;;28.00;;
11797;SDS011;5956;51.428;6.682;2023-09-30T10:59:07;6.18;;;5.57;;
11797;SDS011;5956;51.428;6.682;2023-09-30T11:01:34;5.60;;;4.32;;
11797;SDS011;5956;51.428;6.682;2023-09-30T11:04:02;7.05;;;4.40;;
11797;SDS011;5956;51.428;6.682;2023-09-30T11:06:30;6.32;;;3.95;;
11797;SDS011;5956;51.428;6.682;2023-09-30T11:09:00;7.10;;;3.97;;
11797;SDS011;5956;51.428;6.682;2023-09-30T11:11:34;6.03;;;4.28;;
11797;SDS011;5956;51.428;6.682;2023-09-30T11:14:01;5.40;;;3.83;;
11797;SDS011;5956;51.428;6.682;2023-09-30T11:16:29;6.78;;;3.85;;
11797;SDS011;5956;51.428;6.682;2023-09-30T11:18:56;7.32;;;4.22;;
11797;SDS011;5956;51.428;6.682;2023-09-30T11:21:23;6.93;;;3.70;;
11797;SDS011;5956;51.428;6.682;2023-09-30T11:23:50;6.35;;;3.72;;
11797;SDS011;5956;51.428;6.682;2023-09-30T11:26:22;5.18;;;3.70;;
11797;SDS011;5956;51.428;6.682;2023-09-30T11:29:04;91.80;;;11.75;;
11797;SDS011;5956;51.428;6.682;2023-09-30T11:31:31;10.27;;;4.47;;
11797;SDS011;5956;51.428;6.682;2023-09-30T11:33:59;15.15;;;4.68;;
11797;SDS011;5956;51.428;6.682;2023-09-30T11:36:29;12.55;;;3.53;;
11797;SDS011;5956;51.428;6.682;2023-09-30T11:38:55;6.22;;;3.28;;
11797;SDS011;5956;51.428;6.682;2023-09-30T11:41:31;9.10;;;3.63;;
11797;SDS011;5956;51.428;6.682;2023-09-30T11:43:59;6.30;;;3.70;;
11797;SDS011;5956;51.428;6.682;2023-09-30T11:46:30;7.22;;;3.20;;
11797;SDS011;5956;51.428;6.682;2023-09-30T11:48:59;6.25;;;3.22;;
11797;SDS011;5956;51.428;6.682;2023-09-30T11:51:27;6.22;;;3.17;;
11797;SDS011;5956;51.428;6.682;2023-09-30T11:53:54;3.63;;;3.08;;
11797;SDS011;5956;51.428;6.682;2023-09-30T11:56:24;4.00;;;2.58;;
11797;SDS011;5956;51.428;6.682;2023-09-30T11:58:55;7.75;;;2.90;;
11797;SDS011;5956;51.428;6.682;2023-09-30T12:01:22;3.53;;;2.95;;
11797;SDS011;5956;51.428;6.682;2023-09-30T12:03:51;5.10;;;3.70;;
11797;SDS011;5956;51.428;6.682;2023-09-30T12:06:20;7.80;;;2.85;;
11797;SDS011;5956;51.428;6.682;2023-09-30T12:08:47;5.05;;;3.42;;
11797;SDS011;5956;51.428;6.682;2023-09-30T12:11:14;5.82;;;3.55;;
11797;SDS011;5956;51.428;6.682;2023-09-30T12:13:42;4.40;;;3.70;;
11797;SDS011;5956;51.428;6.682;2023-09-30T12:16:13;5.05;;;4.38;;
11797;SDS011;5956;51.428;6.682;2023-09-30T12:18:40;6.45;;;3.83;;
11797;SDS011;5956;51.428;6.682;2023-09-30T12:21:07;5.65;;;4.25;;
11797;SDS011;5956;51.428;6.682;2023-09-30T12:23:34;3.97;;;3.60;;
11797;SDS011;5956;51.428;6.682;2023-09-30T12:26:01;6.10;;;3.92;;
11797;SDS011;5956;51.428;6.682;2023-09-30T12:28:30;4.38;;;3.30;;
11797;SDS011;5956;51.428;6.682;2023-09-30T12:30:58;3.60;;;3.00;;
11797;SDS011;5956;51.428;6.682;2023-09-30T12:33:27;4.00;;;2.63;;
11797;SDS011;5956;51.428;6.682;2023-09-30T12:35:55;3.70;;;2.80;;
11797;SDS011;5956;51.428;6.682;2023-09-30T12:38:22;5.78;;;3.33;;
11797;SDS011;5956;51.428;6.682;2023-09-30T12:40:50;5.60;;;2.60;;
11797;SDS011;5956;51.428;6.682;2023-09-30T12:43:17;6.18;;;3.00;;
11797;SDS011;5956;51.428;6.682;2023-09-30T12:45:44;4.47;;;2.72;;
11797;SDS011;5956;51.428;6.682;2023-09-30T12:48:12;3.55;;;2.80;;
11797;SDS011;5956;51.428;6.682;2023-09-30T12:50:39;3.67;;;2.85;;
11797;SDS011;5956;51.428;6.682;2023-09-30T12:53:06;4.95;;;2.90;;
11797;SDS011;5956;51.428;6.682;2023-09-30T12:55:32;3.90;;;2.70;;
11797;SDS011;5956;51.428;6.682;2023-09-30T12:57:59;3.50;;;2.60;;
11797;SDS011;5956;51.428;6.682;2023-09-30T13:00:25;3.50;;;3.17;;
11797;SDS011;5956;51.428;6.682;2023-09-30T13:02:52;4.78;;;3.08;;
11797;SDS011;5956;51.428;6.682;2023-09-30T13:05:20;3.42;;;2.80;;
11797;SDS011;5956;51.428;6.682;2023-09-30T13:07:47;3.30;;;2.92;;
11797;SDS011;5956;51.428;6.682;2023-09-30T13:10:13;4.53;;;2.80;;
11797;SDS011;5956;51.428;6.682;2023-09-30T13:12:39;4.90;;;2.85;;
11797;SDS011;5956;51.428;6.682;2023-09-30T13:15:06;4.15;;;3.20;;
11797;SDS011;5956;51.428;6.682;2023-09-30T13:17:33;4.82;;;3.40;;
11797;SDS011;5956;51.428;6.682;2023-09-30T13:20:00;3.45;;;3.15;;
11797;SDS011;5956;51.428;6.682;2023-09-30T13:22:31;6.47;;;3.30;;
11797;SDS011;5956;51.428;6.682;2023-09-30T13:25:00;5.00;;;3.40;;
11797;SDS011;5956;51.428;6.682;2023-09-30T13:27:26;6.20;;;3.90;;
11797;SDS011;5956;51.428;6.682;2023-09-30T13:29:53;3.72;;;3.42;;
11797;SDS011;5956;51.428;6.682;2023-09-30T13:32:23;3.95;;;3.30;;
11797;SDS011;5956;51.428;6.682;2023-09-30T13:34:50;3.50;;;3.20;;
11797;SDS011;5956;51.428;6.682;2023-09-30T13:37:17;4.88;;;3.75;;
11797;SDS011;5956;51.428;6.682;2023-09-30T13:39:46;3.90;;;3.17;;
11797;SDS011;5956;51.428;6.682;2023-09-30T13:42:15;4.03;;;3.38;;
11797;SDS011;5956;51.428;6.682;2023-09-30T13:44:42;5.97;;;3.40;;
11797;SDS011;5956;51.428;6.682;2023-09-30T13:47:09;3.97;;;3.00;;
11797;SDS011;5956;51.428;6.682;2023-09-30T13:49:35;3.65;;;3.30;;
11797;SDS011;5956;51.428;6.682;2023-09-30T13:52:02;3.40;;;3.10;;
11797;SDS011;5956;51.428;6.682;2023-09-30T13:54:29;3.70;;;3.08;;
11797;SDS011;5956;51.428;6.682;2023-09-30T13:56:57;5.00;;;3.88;;
11797;SDS011;5956;51.428;6.682;2023-09-30T13:59:24;4.30;;;3.13;;
11797;SDS011;5956;51.428;6.682;2023-09-30T14:01:50;5.03;;;3.10;;
11797;SDS011;5956;51.428;6.682;2023-09-30T14:04:18;3.88;;;3.42;;
11797;SDS011;5956;51.428;6.682;2023-09-30T14:06:45;4.03;;;2.83;;
11797;SDS011;5956;51.428;6.682;2023-09-30T14:09:13;2.88;;;2.60;;
11797;SDS011;5956;51.428;6.682;2023-09-30T14:11:40;5.72;;;3.60;;
11797;SDS011;5956;51.428;6.682;2023-09-30T14:14:08;5.00;;;3.58;;
11797;SDS011;5956;51.428;6.682;2023-09-30T14:16:35;3.47;;;3.17;;
11797;SDS011;5956;51.428;6.682;2023-09-30T14:19:02;6.22;;;3.28;;
11797;SDS011;5956;51.428;6.682;2023-09-30T14:21:29;4.03;;;3.00;;
11797;SDS011;5956;51.428;6.682;2023-09-30T14:23:57;3.67;;;3.33;;
11797;SDS011;5956;51.428;6.682;2023-09-30T14:26:23;4.57;;;3.00;;
11797;SDS011;5956;51.428;6.682;2023-09-30T14:28:50;3.72;;;3.42;;
11797;SDS011;5956;51.428;6.682;2023-09-30T14:31:18;5.00;;;3.35;;
11797;SDS011;5956;51.428;6.682;2023-09-30T14:33:44;3.38;;;3.08;;
11797;SDS011;5956;51.428;6.682;2023-09-30T14:36:11;3.90;;;3.38;;
11797;SDS011;5956;51.428;6.682;2023-09-30T14:38:37;4.00;;;3.20;;
11797;SDS011;5956;51.428;6.682;2023-09-30T14:41:06;5.22;;;3.75;;
11797;SDS011;5956;51.428;6.682;2023-09-30T14:43:32;4.35;;;3.42;;
11797;SDS011;5956;51.428;6.682;2023-09-30T14:46:00;6.40;;;3.67;;
11797;SDS011;5956;51.428;6.682;2023-09-30T14:48:28;3.63;;;3.15;;
11797;SDS011;5956;51.428;6.682;2023-09-30T14:50:55;4.35;;;3.33;;
11797;SDS011;5956;51.428;6.682;2023-09-30T14:53:22;4.57;;;3.60;;
11797;SDS011;5956;51.428;6.682;2023-09-30T14:55:49;4.22;;;3.42;;
11797;SDS011;5956;51.428;6.682;2023-09-30T14:58:16;5.03;;;3.60;;
11797;SDS011;5956;51.428;6.682;2023-09-30T15:00:43;3.78;;;3.33;;
11797;SDS011;5956;51.428;6.682;2023-09-30T15:03:10;3.75;;;3.08;;
11797;SDS011;5956;51.428;6.682;2023-09-30T15:05:37;5.25;;;3.40;;
11797;SDS011;5956;51.428;6.682;2023-09-30T15:08:04;3.95;;;3.55;;
11797;SDS011;5956;51.428;6.682;2023-09-30T15:10:33;4.95;;;3.28;;
11797;SDS011;5956;51.428;6.682;2023-09-30T15:13:00;4.82;;;3.05;;